createdAt,value
2022-11-07T00:02:35.004Z,100351.06
2022-11-07T00:06:46.588Z,100348.13
2022-11-07T00:10:59.449Z,100358.88
2022-11-07T00:15:11.154Z,100359.59
2022-11-07T00:19:22.626Z,100364.53
2022-11-07T00:23:34.509Z,100363.00
2022-11-07T00:27:46.030Z,100366.16
2022-11-07T00:31:58.917Z,100367.53
2022-11-07T00:36:19.256Z,100389.28
2022-11-07T00:40:30.676Z,100382.38
2022-11-07T00:44:42.109Z,100376.28
2022-11-07T00:48:53.551Z,100374.44
2022-11-07T00:53:04.992Z,100385.31
2022-11-07T00:57:16.445Z,100376.41
2022-11-07T01:01:30.680Z,100383.53
2022-11-07T01:05:42.265Z,100390.44
2022-11-07T01:09:53.731Z,100397.44
2022-11-07T01:14:06.071Z,100390.69
2022-11-07T01:18:17.538Z,100394.91
2022-11-07T01:22:28.980Z,100393.13
2022-11-07T01:26:41.980Z,100404.47
2022-11-07T01:30:53.405Z,100404.59
2022-11-07T01:35:05.346Z,100409.72
2022-11-07T01:39:16.814Z,100413.13
2022-11-07T01:44:06.846Z,100419.06
2022-11-07T01:48:18.299Z,100421.88
2022-11-07T01:52:34.842Z,100432.72
2022-11-07T01:56:47.443Z,100421.50
2022-11-07T02:00:58.930Z,100421.50
2022-11-07T02:05:15.032Z,100420.38
2022-11-07T02:09:26.503Z,100431.69
2022-11-07T02:13:38.171Z,100431.44
2022-11-07T02:17:49.680Z,100429.38
2022-11-07T02:22:32.026Z,100438.47
2022-11-07T02:26:44.034Z,100437.31
2022-11-07T02:30:55.497Z,100436.63
2022-11-07T02:35:36.103Z,100434.25
2022-11-07T02:39:47.996Z,100429.13
2022-11-07T02:44:05.911Z,100432.41
2022-11-07T02:48:17.985Z,100433.22
2022-11-07T02:52:29.441Z,100424.09
2022-11-07T02:56:40.903Z,100443.97
2022-11-07T03:00:52.320Z,100427.03
2022-11-07T03:05:04.337Z,100438.16
2022-11-07T03:09:15.832Z,100431.59
2022-11-07T03:13:27.277Z,100434.50
2022-11-07T03:17:39.085Z,100438.56
2022-11-07T03:21:51.080Z,100452.38
2022-11-07T03:26:03.820Z,100444.88
2022-11-07T03:30:16.277Z,100438.09
2022-11-07T03:34:27.800Z,100447.00
2022-11-07T03:38:39.251Z,100445.72
2022-11-07T03:42:50.655Z,100442.09
2022-11-07T03:47:02.085Z,100457.41
2022-11-07T03:51:13.567Z,100455.91
2022-11-07T03:55:24.994Z,100453.31
2022-11-07T03:59:36.555Z,100455.44
2022-11-07T04:03:47.981Z,100469.00
2022-11-07T04:07:59.399Z,100452.63
2022-11-07T04:12:29.578Z,100460.22
2022-11-07T04:17:01.132Z,100448.41
2022-11-07T04:21:12.575Z,100459.06
2022-11-07T04:25:43.711Z,100452.88
2022-11-07T04:29:55.963Z,100458.56
2022-11-07T04:34:07.381Z,100458.84
2022-11-07T04:38:18.813Z,100454.59
2022-11-07T04:42:30.262Z,100456.34
2022-11-07T04:46:41.698Z,100459.41
2022-11-07T04:50:53.156Z,100455.16
2022-11-07T04:55:06.515Z,100456.09
2022-11-07T04:59:18.031Z,100451.66
2022-11-07T05:03:29.557Z,100456.81
2022-11-07T05:07:41.246Z,100453.66
2022-11-07T05:11:52.855Z,100454.19
2022-11-07T05:16:04.767Z,100446.13
2022-11-07T05:20:30.218Z,100457.41
2022-11-07T05:24:41.732Z,100468.25
2022-11-07T05:28:53.248Z,100456.66
2022-11-07T05:33:04.858Z,100465.91
2022-11-07T05:37:16.363Z,100455.38
2022-11-07T05:41:27.994Z,100454.09
2022-11-07T05:45:41.141Z,100462.28
2022-11-07T05:49:52.637Z,100461.91
2022-11-07T05:54:04.380Z,100449.41
2022-11-07T05:58:16.100Z,100470.56
2022-11-07T06:02:27.827Z,100463.91
2022-11-07T06:06:39.513Z,100483.31
2022-11-07T06:10:51.028Z,100471.50
2022-11-07T06:15:02.581Z,100463.81
2022-11-07T06:19:14.093Z,100464.28
2022-11-07T06:23:25.616Z,100459.97
2022-11-07T06:27:37.188Z,100471.91
2022-11-07T06:31:48.765Z,100472.56
2022-11-07T06:36:09.312Z,100472.81
2022-11-07T06:40:20.923Z,100485.78
2022-11-07T06:44:32.673Z,100493.03
2022-11-07T06:48:44.321Z,100496.31
2022-11-07T06:52:55.848Z,100499.59
2022-11-07T06:57:07.332Z,100506.72
2022-11-07T07:01:19.544Z,100502.16
2022-11-07T07:05:33.027Z,100514.69
2022-11-07T07:09:44.757Z,100515.84
2022-11-07T07:14:01.163Z,100518.31
2022-11-07T07:18:13.765Z,100516.44
2022-11-07T07:22:25.395Z,100521.34
2022-11-07T07:26:36.949Z,100514.19
2022-11-07T07:30:51.879Z,100520.50
2022-11-07T07:35:04.559Z,100523.31
2022-11-07T07:39:16.095Z,100526.66
2022-11-07T07:43:28.842Z,100538.00
2022-11-07T07:47:40.800Z,100539.75
2022-11-07T07:51:52.388Z,100552.84
2022-11-07T07:56:06.357Z,100548.63
2022-11-07T08:00:18.147Z,100554.47
2022-11-07T08:04:29.693Z,100561.31
2022-11-07T08:08:41.254Z,100567.63
2022-11-07T08:12:52.960Z,100565.81
2022-11-07T08:17:04.603Z,100563.88
2022-11-07T08:21:16.204Z,100564.50
2022-11-07T08:25:27.863Z,100561.47
2022-11-07T08:29:41.898Z,100561.31
2022-11-07T08:33:56.774Z,100571.19
2022-11-07T08:38:08.572Z,100559.00
2022-11-07T08:42:20.111Z,100574.38
2022-11-07T08:46:31.674Z,100592.81
2022-11-07T08:50:44.005Z,100612.19
2022-11-07T08:54:55.565Z,100609.75
2022-11-07T08:59:07.179Z,100610.38
2022-11-07T09:07:50.223Z,100611.25
2022-11-07T09:12:01.765Z,100617.69
2022-11-07T09:16:17.062Z,100616.72
2022-11-07T09:20:28.575Z,100609.47
2022-11-07T09:24:40.176Z,100614.59
2022-11-07T09:28:56.036Z,100616.13
2022-11-07T09:33:10.602Z,100631.78
2022-11-07T09:37:22.183Z,100634.22
2022-11-07T09:41:56.175Z,100635.22
2022-11-07T09:46:32.334Z,100636.25
2022-11-07T09:50:44.094Z,100632.09
2022-11-07T09:55:02.498Z,100641.34
2022-11-07T09:59:23.317Z,100646.94
2022-11-07T10:03:37.291Z,100654.50
2022-11-07T10:08:03.899Z,100646.00
2022-11-07T10:12:44.602Z,100646.25
2022-11-07T10:17:14.762Z,100649.91
2022-11-07T10:21:38.370Z,100648.41
2022-11-07T10:26:07.875Z,100648.41
2022-11-07T10:30:21.316Z,100662.47
2022-11-07T10:34:40.609Z,100663.78
2022-11-07T10:38:52.622Z,100677.75
2022-11-07T10:43:08.941Z,100666.41
2022-11-07T10:47:26.506Z,100684.78
2022-11-07T10:51:40.992Z,100672.94
2022-11-07T10:55:54.705Z,100677.50
2022-11-07T11:00:21.284Z,100679.66
2022-11-07T11:04:33.301Z,100671.66
2022-11-07T11:08:50.738Z,100668.31
2022-11-07T11:13:02.296Z,100677.72
2022-11-07T11:17:28.548Z,100665.13
2022-11-07T11:21:43.214Z,100664.72
2022-11-07T11:26:14.043Z,100666.97
2022-11-07T11:30:26.359Z,100674.53
2022-11-07T11:34:53.075Z,100668.13
2022-11-07T11:39:10.598Z,100674.63
2022-11-07T11:43:25.640Z,100654.84
2022-11-07T11:47:40.735Z,100657.31
2022-11-07T11:52:15.696Z,100657.22
2022-11-07T11:57:03.530Z,100666.53
2022-11-07T12:01:30.360Z,100660.34
2022-11-07T12:06:03.415Z,100653.69
2022-11-07T12:10:34.496Z,100668.94
2022-11-07T12:15:12.802Z,100679.53
2022-11-07T12:19:24.328Z,100672.72
2022-11-07T12:23:54.089Z,100661.84
2022-11-07T12:28:31.763Z,100664.34
2022-11-07T12:33:18.948Z,100670.06
2022-11-07T12:37:45.408Z,100672.41
2022-11-07T12:42:07.333Z,100657.69
2022-11-07T12:46:33.149Z,100669.94
2022-11-07T12:51:10.775Z,100661.22
2022-11-07T12:55:40.692Z,100662.91
2022-11-07T13:00:17.187Z,100655.66
2022-11-07T13:04:43.762Z,100659.22
2022-11-07T13:09:24.050Z,100651.66
2022-11-07T13:13:38.538Z,100656.94
2022-11-07T13:17:50.073Z,100660.72
2022-11-07T13:22:17.691Z,100659.16
2022-11-07T13:31:05.213Z,100657.25
2022-11-07T13:35:31.189Z,100658.03
2022-11-07T13:39:45.210Z,100647.13
2022-11-07T13:44:15.025Z,100646.00
2022-11-07T13:48:40.589Z,100649.16
2022-11-07T13:53:01.655Z,100652.09
2022-11-07T13:57:23.447Z,100646.88
2022-11-07T14:01:43.589Z,100654.53
2022-11-07T14:05:56.568Z,100654.44
2022-11-07T14:10:24.597Z,100652.53
2022-11-07T14:14:36.164Z,100646.31
2022-11-07T14:18:51.075Z,100653.06
2022-11-07T14:23:02.732Z,100654.13
2022-11-07T14:27:14.638Z,100658.16
2022-11-07T14:31:33.889Z,100653.88
2022-11-07T14:35:48.314Z,100650.34
2022-11-07T14:39:59.960Z,100651.22
2022-11-07T14:44:25.266Z,100649.09
2022-11-07T14:48:42.441Z,100649.31
2022-11-07T14:52:58.420Z,100655.59
2022-11-07T14:57:13.028Z,100651.56
2022-11-07T15:01:29.076Z,100652.88
2022-11-07T15:05:40.825Z,100644.94
2022-11-07T15:09:54.526Z,100647.84
2022-11-07T15:14:30.919Z,100646.50
2022-11-07T15:18:44.989Z,100654.06
2022-11-07T15:22:57.601Z,100656.69
2022-11-07T15:27:30.064Z,100658.03
2022-11-07T15:31:49.209Z,100660.69
2022-11-07T15:36:01.872Z,100647.69
2022-11-07T15:40:17.088Z,100666.38
2022-11-07T15:44:28.679Z,100659.56
2022-11-07T15:48:41.691Z,100665.00
2022-11-07T15:52:54.337Z,100656.00
2022-11-07T15:57:07.885Z,100662.22
2022-11-07T16:01:19.735Z,100674.38
2022-11-07T16:05:31.371Z,100668.66
2022-11-07T16:09:43.352Z,100679.22
2022-11-07T16:14:14.695Z,100674.88
2022-11-07T16:18:27.301Z,100679.72
2022-11-07T16:22:38.892Z,100680.84
2022-11-07T16:26:51.559Z,100677.31
2022-11-07T16:31:03.464Z,100686.81
2022-11-07T16:35:15.055Z,100677.25
2022-11-07T16:39:26.699Z,100688.88
2022-11-07T16:43:38.559Z,100678.22
2022-11-07T16:47:50.133Z,100683.91
2022-11-07T16:52:01.780Z,100680.63
2022-11-07T16:56:25.587Z,100669.44
2022-11-07T17:00:37.132Z,100668.38
2022-11-07T17:04:50.414Z,100677.56
2022-11-07T17:09:10.580Z,100673.78
2022-11-07T17:13:25.036Z,100681.91
2022-11-07T17:17:36.639Z,100681.66
2022-11-07T17:21:49.439Z,100694.94
2022-11-07T17:26:02.315Z,100686.81
2022-11-07T17:30:18.013Z,100680.34
2022-11-07T17:34:29.621Z,100688.13
2022-11-07T17:38:41.180Z,100690.06
2022-11-07T17:42:52.826Z,100686.00
2022-11-07T17:47:04.479Z,100680.59
2022-11-07T17:51:16.117Z,100684.09
2022-11-07T17:55:27.683Z,100683.53
2022-11-07T17:59:44.772Z,100686.81
2022-11-07T18:03:58.977Z,100684.09
2022-11-07T18:08:24.986Z,100684.34
2022-11-07T18:12:42.720Z,100685.22
2022-11-07T18:16:54.366Z,100681.44
2022-11-07T18:21:06.100Z,100690.94
2022-11-07T18:25:18.082Z,100692.75
2022-11-07T18:29:29.675Z,100682.25
2022-11-07T18:33:41.809Z,100688.50
2022-11-07T18:37:53.356Z,100688.25
2022-11-07T18:42:04.959Z,100684.16
2022-11-07T18:46:19.277Z,100690.38
2022-11-07T18:50:30.869Z,100690.59
2022-11-07T18:54:42.417Z,100691.09
2022-11-07T18:58:55.062Z,100683.41
2022-11-07T19:03:07.100Z,100680.13
2022-11-07T19:07:18.656Z,100688.25
2022-11-07T19:11:31.488Z,100690.91
2022-11-07T19:15:43.045Z,100677.25
2022-11-07T19:19:54.607Z,100675.47
2022-11-07T19:24:06.656Z,100678.09
2022-11-07T19:28:18.228Z,100683.28
2022-11-07T19:32:29.771Z,100675.72
2022-11-07T19:36:41.332Z,100689.66
2022-11-07T19:40:53.227Z,100692.16
2022-11-07T19:45:05.269Z,100681.66
2022-11-07T19:49:16.797Z,100692.97
2022-11-07T19:53:28.389Z,100686.25
2022-11-07T19:57:39.924Z,100676.25
2022-11-07T20:02:17.974Z,100677.31
2022-11-07T20:06:30.415Z,100683.66
2022-11-07T20:10:46.489Z,100687.28
2022-11-07T20:14:58.116Z,100692.53
2022-11-07T20:19:11.119Z,100689.41
2022-11-07T20:23:22.658Z,100696.09
2022-11-07T20:27:34.280Z,100696.47
2022-11-07T20:31:45.987Z,100699.38
2022-11-07T20:35:59.526Z,100703.88
2022-11-07T20:40:11.478Z,100708.69
2022-11-07T20:44:23.063Z,100712.94
2022-11-07T20:48:35.196Z,100716.94
2022-11-07T20:52:46.755Z,100710.81
2022-11-07T20:56:59.408Z,100709.59
2022-11-07T21:01:14.968Z,100710.47
2022-11-07T21:05:26.738Z,100705.97
2022-11-07T21:09:38.359Z,100716.88
2022-11-07T21:13:53.208Z,100715.06
2022-11-07T21:18:05.055Z,100718.31
2022-11-07T21:22:16.591Z,100719.22
2022-11-07T21:26:34.316Z,100719.06
2022-11-07T21:31:01.322Z,100717.47
2022-11-07T21:35:15.819Z,100709.06
2022-11-07T21:39:27.378Z,100699.09
2022-11-07T21:43:39.021Z,100707.25
2022-11-07T21:47:50.606Z,100706.19
2022-11-07T21:52:02.295Z,100696.63
2022-11-07T21:56:22.500Z,100699.56
2022-11-07T22:00:36.739Z,100703.16
2022-11-07T22:04:48.808Z,100704.25
2022-11-07T22:09:00.828Z,100692.59
2022-11-07T22:13:12.581Z,100700.72
2022-11-07T22:17:24.700Z,100688.28
2022-11-07T22:21:36.564Z,100686.88
2022-11-07T22:25:48.300Z,100684.09
2022-11-07T22:30:00.040Z,100678.44
2022-11-07T22:34:11.803Z,100679.03
2022-11-07T22:38:23.885Z,100684.19
2022-11-07T22:42:35.596Z,100674.59
2022-11-07T22:46:47.473Z,100672.63
2022-11-07T22:51:08.255Z,100671.19
2022-11-07T22:55:19.922Z,100667.84
2022-11-07T22:59:31.613Z,100666.19
2022-11-07T23:03:43.324Z,100662.63
2022-11-07T23:07:54.987Z,100661.16
2022-11-07T23:12:06.754Z,100661.34
2022-11-07T23:16:32.165Z,100654.44
2022-11-07T23:21:04.585Z,100662.72
2022-11-07T23:25:16.366Z,100649.44
2022-11-07T23:29:28.040Z,100647.56
2022-11-07T23:33:40.596Z,100637.53
2022-11-07T23:37:52.279Z,100637.09
2022-11-07T23:42:04.006Z,100647.09
2022-11-07T23:46:34.025Z,100635.56
2022-11-07T23:51:03.804Z,100641.34
2022-11-07T23:55:34.283Z,100625.34
